Time;durP1;ratioP1;P1;durP2;ratioP2;P2;SDS_P1;SDS_P2;PMS_P1;PMS_P2;Temp;Humidity;BMP_temperature;BMP_pressure;BME280_temperature;BME280_humidity;BME280_pressure;Samples;Min_cycle;Max_cycle;Signal;HPM_P1;HPM_P2
2022/04/18 00:00:02;;;;;;;1.00;0.50;;;;;;;4.97;100.00;94174.69;5032650;28;20181;-63
2022/04/18 00:02:28;;;;;;;0.30;0.30;;;;;;;4.92;100.00;94149.84;5032065;28;20292;-61
2022/04/18 00:04:53;;;;;;;0.47;0.43;;;;;;;4.99;100.00;94140.13;5032332;28;20313;-61
2022/04/18 00:07:18;;;;;;;0.53;0.50;;;;;;;5.11;100.00;94142.56;5031998;28;20195;-62
2022/04/18 00:09:44;;;;;;;0.50;0.50;;;;;;;5.19;100.00;94143.75;5032194;28;20210;-62
2022/04/18 00:12:09;;;;;;;0.67;0.50;;;;;;;5.19;100.00;94149.59;5031885;28;20304;-61
2022/04/18 00:14:35;;;;;;;0.90;0.70;;;;;;;5.28;100.00;94150.63;5032303;28;20185;-60
2022/04/18 00:17:00;;;;;;;0.50;0.50;;;;;;;5.25;100.00;94131.53;5030766;28;20255;-63
2022/04/18 00:19:26;;;;;;;0.63;0.63;;;;;;;5.22;100.00;94167.00;5032175;28;20196;-61
2022/04/18 00:21:52;;;;;;;0.43;0.37;;;;;;;5.22;100.00;94124.19;5038819;23;20741;-62
2022/04/18 00:24:19;;;;;;;0.83;0.70;;;;;;;4.95;100.00;94066.53;5031889;28;20652;-63
2022/04/18 00:26:45;;;;;;;0.70;0.50;;;;;;;5.16;100.00;94094.41;5032480;28;20549;-61
2022/04/18 00:29:11;;;;;;;0.87;0.70;;;;;;;5.28;100.00;94127.97;5031145;28;20188;-60
2022/04/18 00:31:37;;;;;;;0.87;0.87;;;;;;;5.23;100.00;94130.03;5031604;28;20234;-61
2022/04/18 00:34:04;;;;;;;0.77;0.77;;;;;;;5.35;100.00;94149.28;5031898;28;20191;-63
2022/04/18 00:36:30;;;;;;;1.27;0.70;;;;;;;5.23;100.00;94103.13;5032250;28;20296;-63
2022/04/18 00:38:55;;;;;;;0.80;0.70;;;;;;;5.32;100.00;94177.22;5031869;28;20263;-63
2022/04/18 00:41:21;;;;;;;0.67;0.67;;;;;;;5.25;100.00;94146.66;5014386;28;20182;-62
2022/04/18 00:43:48;;;;;;;0.77;0.70;;;;;;;5.38;100.00;94144.03;5031935;28;20182;-61
2022/04/18 00:46:17;;;;;;;1.13;0.90;;;;;;;5.40;100.00;94124.56;5032068;28;20178;-65
2022/04/18 00:48:42;;;;;;;1.03;0.87;;;;;;;5.41;100.00;94133.72;5031594;28;20176;-62
2022/04/18 00:51:11;;;;;;;1.20;0.80;;;;;;;5.13;100.00;94068.63;5031783;28;20678;-63
2022/04/18 00:53:38;;;;;;;1.07;0.70;;;;;;;5.17;100.00;94049.88;5031575;28;20174;-61
2022/04/18 00:56:05;;;;;;;0.73;0.73;;;;;;;5.29;100.00;94079.19;5031907;28;20648;-62
2022/04/18 00:58:32;;;;;;;0.87;0.80;;;;;;;5.00;100.00;94048.56;5031633;28;20732;-62
2022/04/18 01:00:57;;;;;;;0.50;0.50;;;;;;;5.20;100.00;94100.81;5031810;28;20188;-62
2022/04/18 01:03:23;;;;;;;1.17;0.70;;;;;;;5.31;100.00;94127.75;5031793;28;20205;-63
2022/04/18 01:05:48;;;;;;;0.43;0.43;;;;;;;5.36;100.00;94131.53;5030342;28;20180;-60
2022/04/18 01:08:15;;;;;;;0.63;0.57;;;;;;;5.46;100.00;94119.06;5031683;28;20283;-63
2022/04/18 01:10:40;;;;;;;0.60;0.50;;;;;;;5.34;100.00;94118.25;5031483;28;20293;-61
2022/04/18 01:13:13;;;;;;;2.60;0.77;;;;;;;4.95;100.00;94081.63;5031299;28;20293;-62
2022/04/18 01:15:38;;;;;;;0.70;0.70;;;;;;;5.38;100.00;94104.50;5031546;28;20190;-62
2022/04/18 01:18:04;;;;;;;0.90;0.90;;;;;;;5.37;100.00;94104.63;5031345;28;20228;-60
2022/04/18 01:20:34;;;;;;;0.60;0.57;;;;;;;5.31;100.00;94107.59;5031270;28;20560;-62
2022/04/18 01:23:01;;;;;;;0.60;0.60;;;;;;;5.46;100.00;94111.50;5031652;28;20275;-62
2022/04/18 01:30:56;;;;;;;1.17;0.70;;;;;;;5.70;100.00;94132.38;5031695;28;20220;-61
2022/04/18 01:33:22;;;;;;;0.87;0.80;;;;;;;5.69;100.00;94123.22;5029835;28;20579;-63
2022/04/18 01:35:47;;;;;;;0.80;0.70;;;;;;;5.87;100.00;94122.69;5029625;28;20188;-60
2022/04/18 01:38:13;;;;;;;0.80;0.77;;;;;;;5.99;99.74;94142.84;5031445;28;20205;-60
2022/04/18 01:40:39;;;;;;;0.70;0.70;;;;;;;5.91;96.61;94176.22;5034108;28;20196;-60
2022/04/18 01:43:06;;;;;;;0.50;0.50;;;;;;;5.85;97.11;94164.88;5033343;28;20212;-61
2022/04/18 01:45:32;;;;;;;0.80;0.80;;;;;;;5.84;97.68;94147.31;5033440;28;20190;-60
2022/04/18 01:47:57;;;;;;;1.27;0.60;;;;;;;5.70;100.00;94099.59;5034826;28;20742;-62
2022/04/18 01:50:23;;;;;;;1.07;0.97;;;;;;;5.99;96.58;94170.59;5033206;28;20644;-61
2022/04/18 01:52:48;;;;;;;0.80;0.70;;;;;;;5.96;95.73;94166.56;5033689;28;20657;-60
2022/04/18 01:55:13;;;;;;;1.27;0.70;;;;;;;5.69;96.67;94138.34;5033227;28;20196;-62
2022/04/18 01:57:39;;;;;;;0.80;0.80;;;;;;;5.44;98.37;94098.22;5034493;28;20640;-62
2022/04/18 02:00:06;;;;;;;0.83;0.83;;;;;;;5.52;98.57;94098.44;5033115;28;20186;-63
2022/04/18 02:02:31;;;;;;;1.23;0.70;;;;;;;5.46;99.03;94094.66;5034646;28;20206;-62
2022/04/18 02:04:56;;;;;;;1.27;0.87;;;;;;;5.47;100.00;94057.66;5034368;28;20186;-61
2022/04/18 02:07:22;;;;;;;0.37;0.37;;;;;;;5.39;100.00;94049.88;5032912;28;20671;-61
2022/04/18 02:09:47;;;;;;;1.07;0.70;;;;;;;5.46;99.29;94088.81;5034264;28;20205;-60
2022/04/18 02:12:31;;;;;;;0.60;0.60;;;;;;;5.40;100.00;94061.56;5034331;28;20690;-62
2022/04/18 02:14:57;;;;;;;0.77;0.77;;;;;;;5.43;98.71;94071.41;5034195;28;20168;-60
2022/04/18 02:17:22;;;;;;;0.60;0.60;;;;;;;5.41;99.82;94070.72;5034067;28;20252;-63
2022/04/18 02:19:48;;;;;;;0.87;0.80;;;;;;;5.39;99.15;94075.88;5033973;28;20189;-62
2022/04/18 02:22:13;;;;;;;1.13;0.60;;;;;;;5.11;98.67;94071.25;5034337;28;20219;-60
2022/04/18 02:24:40;;;;;;;0.63;0.63;;;;;;;4.96;99.21;94053.03;5034140;28;20182;-62
2022/04/18 02:27:06;;;;;;;0.50;0.47;;;;;;;4.89;100.00;94031.72;5034450;28;20301;-61
2022/04/18 02:29:33;;;;;;;0.70;0.60;;;;;;;4.87;100.00;94038.59;5033853;28;20186;-61
2022/04/18 02:34:43;;;;;;;0.67;0.60;;;;;;;4.79;100.00;94020.72;5034166;28;20230;-62
2022/04/18 02:37:08;;;;;;;0.60;0.60;;;;;;;4.89;100.00;94000.69;5033563;28;20591;-64
2022/04/18 02:39:34;;;;;;;1.10;1.00;;;;;;;5.16;100.00;94028.91;5015853;28;20191;-60
2022/04/18 02:41:59;;;;;;;2.03;0.87;;;;;;;5.30;100.00;94037.94;5033914;28;20553;-60
2022/04/18 02:44:25;;;;;;;0.77;0.73;;;;;;;5.37;100.00;94011.41;5033540;28;20201;-61
2022/04/18 02:46:50;;;;;;;0.67;0.60;;;;;;;5.45;100.00;94009.91;5033340;28;20210;-62
2022/04/18 02:49:15;;;;;;;0.60;0.60;;;;;;;5.41;100.00;94035.44;5033607;28;20558;-63
2022/04/18 02:51:41;;;;;;;0.90;0.90;;;;;;;5.39;100.00;94022.16;5033241;28;20380;-60
2022/04/18 02:54:06;;;;;;;0.77;0.77;;;;;;;5.46;100.00;94008.16;5033441;28;20213;-62
2022/04/18 02:56:32;;;;;;;0.80;0.80;;;;;;;4.91;100.00;93964.41;5033635;28;20667;-61
2022/04/18 02:58:57;;;;;;;0.70;0.70;;;;;;;4.74;100.00;93969.91;5032038;28;20181;-62
2022/04/18 03:01:23;;;;;;;1.03;0.93;;;;;;;5.03;100.00;93988.69;5032987;28;20545;-63
2022/04/18 03:03:48;;;;;;;1.13;1.03;;;;;;;5.11;100.00;94009.09;5033231;28;20178;-62
2022/04/18 03:06:14;;;;;;;1.30;1.20;;;;;;;5.11;100.00;93976.34;5033434;28;20185;-63
2022/04/18 03:08:40;;;;;;;1.40;1.10;;;;;;;5.21;100.00;93995.81;5033233;28;20186;-62
2022/04/18 03:11:06;;;;;;;1.63;1.17;;;;;;;5.24;100.00;94000.63;5033049;28;20206;-60
2022/04/18 03:13:33;;;;;;;1.00;0.87;;;;;;;5.31;100.00;94022.75;5033240;28;20204;-62
2022/04/18 03:15:59;;;;;;;0.70;0.70;;;;;;;5.23;100.00;94009.91;5033530;28;20263;-63
2022/04/18 03:18:26;;;;;;;2.07;0.70;;;;;;;5.17;100.00;94005.34;5032855;28;20286;-60
2022/04/18 03:20:51;;;;;;;0.80;0.80;;;;;;;5.06;100.00;93970.84;5032961;28;20184;-61
2022/04/18 03:23:17;;;;;;;2.00;0.70;;;;;;;5.07;100.00;93954.81;5032809;28;20206;-61
2022/04/18 03:25:42;;;;;;;1.30;1.20;;;;;;;5.13;100.00;93987.09;5033078;28;20693;-63
2022/04/18 03:28:09;;;;;;;0.60;0.60;;;;;;;4.98;100.00;93972.34;5032519;28;20683;-62
2022/04/18 03:30:34;;;;;;;0.63;0.63;;;;;;;4.97;100.00;93973.22;5032823;28;20178;-64
2022/04/18 03:33:00;;;;;;;0.73;0.50;;;;;;;4.99;100.00;93974.72;5032838;28;20728;-63
2022/04/18 03:35:25;;;;;;;4.00;0.70;;;;;;;4.97;100.00;93978.28;5033106;28;20213;-63
2022/04/18 03:40:35;;;;;;;0.67;0.67;;;;;;;4.98;100.00;93975.66;5032787;28;20196;-63
2022/04/18 03:43:00;;;;;;;0.43;0.43;;;;;;;4.97;100.00;93996.69;5032276;28;20285;-63
2022/04/18 03:45:25;;;;;;;0.70;0.50;;;;;;;4.91;100.00;93974.50;5032348;28;20186;-64
2022/04/18 03:47:51;;;;;;;0.60;0.60;;;;;;;5.06;100.00;94010.34;5030967;28;20643;-61
2022/04/18 03:50:17;;;;;;;1.03;0.80;;;;;;;4.92;100.00;93990.41;5032327;28;20204;-61
2022/04/18 03:52:42;;;;;;;0.70;0.70;;;;;;;4.83;100.00;93976.78;5032205;28;20335;-62
2022/04/18 03:55:08;;;;;;;0.70;0.70;;;;;;;4.94;100.00;93996.13;5032259;28;20251;-63
2022/04/18 03:57:33;;;;;;;0.93;0.70;;;;;;;4.88;100.00;93989.03;5030826;28;20212;-62
2022/04/18 03:59:59;;;;;;;1.33;0.80;;;;;;;4.93;100.00;94000.38;5032205;28;20166;-61
2022/04/18 04:02:24;;;;;;;1.10;0.80;;;;;;;4.96;100.00;93992.59;5032133;28;20207;-62
2022/04/18 04:04:50;;;;;;;0.80;0.80;;;;;;;5.04;100.00;94000.38;5030670;28;20177;-62
2022/04/18 04:07:15;;;;;;;0.80;0.80;;;;;;;5.01;100.00;93990.53;5030844;28;20208;-63
2022/04/18 04:09:41;;;;;;;0.60;0.50;;;;;;;5.15;100.00;94006.34;5032035;28;20173;-63
2022/04/18 04:12:07;;;;;;;1.53;1.10;;;;;;;5.20;100.00;94016.88;5032476;28;20221;-63
2022/04/18 04:14:33;;;;;;;1.33;1.23;;;;;;;5.05;100.00;94019.59;5032205;28;20600;-60
2022/04/18 04:16:59;;;;;;;0.67;0.60;;;;;;;5.11;100.00;94019.16;5032345;28;20200;-63
2022/04/18 04:19:25;;;;;;;0.63;0.63;;;;;;;5.06;100.00;94018.72;5031852;28;20601;-63
2022/04/18 04:21:50;;;;;;;1.57;0.60;;;;;;;5.20;100.00;93995.00;5030749;28;20207;-62
2022/04/18 04:24:15;;;;;;;0.63;0.63;;;;;;;5.35;100.00;93996.41;5031905;28;20183;-62
2022/04/18 04:26:41;;;;;;;2.00;0.90;;;;;;;5.46;100.00;94016.53;5032140;28;20208;-63
2022/04/18 04:29:06;;;;;;;1.37;0.90;;;;;;;5.48;100.00;94007.16;5031761;28;20231;-61
2022/04/18 04:31:32;;;;;;;0.73;0.73;;;;;;;5.50;100.00;94007.03;5031981;28;20303;-61
2022/04/18 04:33:57;;;;;;;1.73;1.10;;;;;;;5.39;100.00;94005.34;5031758;28;20647;-63
2022/04/18 04:36:23;;;;;;;0.80;0.80;;;;;;;5.64;100.00;94050.44;5031930;28;20648;-63
2022/04/18 04:38:48;;;;;;;0.87;0.80;;;;;;;5.80;100.00;94066.03;5032112;28;20235;-63
2022/04/18 04:41:15;;;;;;;1.33;1.23;;;;;;;5.87;100.00;94071.44;5031927;28;20182;-63
2022/04/18 04:43:40;;;;;;;1.57;1.20;;;;;;;5.58;100.00;94047.56;5031572;28;20492;-66
2022/04/18 04:46:06;;;;;;;2.40;1.00;;;;;;;5.46;100.00;94016.53;5031684;28;20220;-62
2022/04/18 04:48:31;;;;;;;1.03;0.93;;;;;;;5.56;100.00;94019.16;5031552;28;20219;-63
2022/04/18 04:50:57;;;;;;;1.53;1.10;;;;;;;5.70;100.00;94049.16;5031562;28;20632;-62
2022/04/18 04:53:22;;;;;;;1.30;1.20;;;;;;;6.05;100.00;93961.56;5031656;28;20205;-60
2022/04/18 04:55:48;;;;;;;1.43;1.17;;;;;;;7.72;100.00;93976.44;5031498;28;20546;-62
2022/04/18 04:58:13;;;;;;;2.07;1.23;;;;;;;8.67;100.00;93986.66;5031694;28;20252;-63
2022/04/18 05:00:40;;;;;;;1.63;1.33;;;;;;;9.49;100.00;93984.34;5031486;28;20186;-64
2022/04/18 05:05:32;;;;;;;3.00;1.40;;;;;;;8.86;99.46;94130.31;5043314;23;20241;-62
2022/04/18 05:07:57;;;;;;;1.47;1.00;;;;;;;8.27;96.59;94135.38;5031202;28;20860;-64
2022/04/18 05:10:23;;;;;;;1.30;1.10;;;;;;;8.00;97.96;94089.59;5031590;28;20186;-64
2022/04/18 05:12:49;;;;;;;2.37;1.00;;;;;;;7.86;94.80;94145.59;5031388;28;20686;-65
2022/04/18 05:15:14;;;;;;;1.43;1.10;;;;;;;7.48;97.55;94090.53;5032464;28;20272;-65
2022/04/18 05:17:40;;;;;;;1.07;1.00;;;;;;;7.25;100.00;94030.97;5034857;28;20205;-61
2022/04/18 05:20:06;;;;;;;1.37;1.10;;;;;;;7.27;100.00;94049.34;5042168;23;20676;-64
2022/04/18 05:22:32;;;;;;;1.23;1.10;;;;;;;7.47;97.99;94099.06;5034751;28;20202;-64
2022/04/18 05:24:58;;;;;;;1.37;1.17;;;;;;;7.24;96.43;94102.66;5035287;28;20179;-65
2022/04/18 05:27:24;;;;;;;4.97;1.50;;;;;;;6.90;100.00;94027.97;5034684;28;20269;-65
2022/04/18 05:29:50;;;;;;;1.67;1.47;;;;;;;6.78;99.08;94075.22;5035285;28;20221;-64
2022/04/18 05:32:16;;;;;;;2.00;1.20;;;;;;;6.88;100.00;94052.53;5034642;28;20217;-65
2022/04/18 05:34:43;;;;;;;1.60;1.20;;;;;;;6.74;99.28;94056.97;5035205;28;20214;-63
2022/04/18 05:37:08;;;;;;;1.60;1.40;;;;;;;6.76;100.00;94021.50;5034675;28;20212;-62
2022/04/18 05:39:34;;;;;;;3.40;1.30;;;;;;;6.75;100.00;94025.75;5035049;28;20272;-61
2022/04/18 05:42:00;;;;;;;2.30;1.23;;;;;;;6.69;100.00;94027.94;5033220;28;20225;-64
2022/04/18 05:44:25;;;;;;;1.40;1.30;;;;;;;6.50;100.00;94012.66;5034899;28;20186;-62
2022/04/18 05:46:51;;;;;;;1.90;1.43;;;;;;;6.72;100.00;94071.47;5041165;23;20230;-63
2022/04/18 05:49:17;;;;;;;1.63;1.30;;;;;;;6.56;100.00;94052.56;5034805;28;20171;-63
2022/04/18 05:51:42;;;;;;;2.50;2.00;;;;;;;6.34;100.00;94025.66;5035067;28;20214;-62
2022/04/18 05:54:08;;;;;;;2.20;1.67;;;;;;;6.26;100.00;93990.13;5035221;28;20597;-64
2022/04/18 05:56:34;;;;;;;1.67;1.40;;;;;;;6.33;100.00;93993.78;5035327;28;20209;-63
2022/04/18 05:58:59;;;;;;;1.97;1.73;;;;;;;6.44;100.00;94013.97;5034410;28;20170;-63
2022/04/18 06:01:25;;;;;;;2.33;1.57;;;;;;;6.46;100.00;94049.97;5034263;28;21903;-64
2022/04/18 06:03:51;;;;;;;3.13;1.90;;;;;;;6.08;100.00;94047.09;5032877;28;20200;-64
2022/04/18 06:06:16;;;;;;;1.77;1.50;;;;;;;6.19;100.00;94069.78;5048269;23;20233;-65
2022/04/18 06:08:42;;;;;;;4.07;1.53;;;;;;;6.22;100.00;94056.91;5034346;28;20174;-61
2022/04/18 06:11:07;;;;;;;1.93;1.60;;;;;;;6.18;100.00;94050.50;5034220;28;20221;-65
2022/04/18 06:13:33;;;;;;;1.83;1.73;;;;;;;6.10;100.00;94042.72;5034704;28;20194;-64
2022/04/18 06:15:59;;;;;;;1.57;1.40;;;;;;;6.29;100.00;94016.88;5034254;28;20260;-65
2022/04/18 06:18:24;;;;;;;1.90;1.80;;;;;;;6.29;100.00;94080.75;5034213;28;20263;-65
2022/04/18 06:20:49;;;;;;;2.37;1.63;;;;;;;6.27;100.00;94054.03;5033920;28;20651;-65
2022/04/18 06:23:19;;;;;;;1.63;1.53;;;;;;;6.19;100.00;94064.72;5032967;28;20640;-62
2022/04/18 06:25:45;;;;;;;4.80;1.93;;;;;;;6.43;100.00;94052.72;5031379;28;20663;-64
2022/04/18 06:28:12;;;;;;;8.17;1.70;;;;;;;6.50;100.00;94071.53;5040803;23;20233;-61
2022/04/18 06:30:38;;;;;;;2.93;2.33;;;;;;;6.50;100.00;94068.22;5033939;28;20178;-62
2022/04/18 06:33:04;;;;;;;2.77;1.93;;;;;;;6.32;99.27;94092.34;5034306;28;20753;-63
2022/04/18 06:35:29;;;;;;;1.60;1.43;;;;;;;6.31;100.00;94058.72;5034044;28;20597;-63
2022/04/18 06:37:55;;;;;;;4.13;2.03;;;;;;;6.56;100.00;94082.88;5034302;28;20265;-63
2022/04/18 06:40:20;;;;;;;1.70;1.60;;;;;;;6.30;100.00;94077.31;5033982;28;20666;-65
2022/04/18 06:42:46;;;;;;;1.80;1.50;;;;;;;6.27;99.17;94112.09;5034049;28;20224;-65
2022/04/18 06:45:12;;;;;;;2.37;1.70;;;;;;;6.32;100.00;94067.13;5033917;28;20179;-63
2022/04/18 06:47:37;;;;;;;4.97;1.57;;;;;;;6.40;100.00;94090.81;5034060;28;20284;-65
2022/04/18 06:50:08;;;;;;;2.03;1.50;;;;;;;6.46;100.00;94079.47;5033544;28;20235;-61
2022/04/18 06:52:49;;;;;;;2.33;2.00;;;;;;;6.37;100.00;94059.97;5031933;28;20230;-65
2022/04/18 06:55:16;;;;;;;3.10;1.90;;;;;;;6.41;99.81;94094.16;5033313;28;20283;-60
2022/04/18 06:57:42;;;;;;;1.43;1.20;;;;;;;6.18;99.63;94095.13;5033679;28;20272;-64
2022/04/18 07:00:08;;;;;;;2.13;1.53;;;;;;;6.38;100.00;94067.41;5033116;28;20273;-64
2022/04/18 07:02:34;;;;;;;2.30;1.37;;;;;;;6.16;100.00;94054.09;5033512;28;20586;-63
2022/04/18 07:05:00;;;;;;;1.40;1.27;;;;;;;6.46;100.00;94060.06;5033052;28;20181;-65
2022/04/18 07:07:25;;;;;;;1.57;1.47;;;;;;;6.19;100.00;94074.81;5031609;28;20209;-62
2022/04/18 07:12:34;;;;;;;1.40;1.30;;;;;;;6.61;100.00;94079.06;5033327;28;20233;-61
2022/04/18 07:15:00;;;;;;;1.50;1.40;;;;;;;6.57;100.00;94081.94;5033019;28;20189;-63
2022/04/18 07:17:25;;;;;;;1.63;1.53;;;;;;;6.72;100.00;94060.53;5031926;28;20224;-64
2022/04/18 07:19:51;;;;;;;2.20;1.50;;;;;;;6.57;100.00;94052.44;5032295;28;20265;-63
2022/04/18 07:22:16;;;;;;;2.23;1.40;;;;;;;6.35;100.00;94074.44;5033500;28;20213;-63
2022/04/18 07:24:42;;;;;;;3.17;1.33;;;;;;;6.54;100.00;94055.22;5031585;28;20185;-65
2022/04/18 07:27:07;;;;;;;1.47;1.33;;;;;;;6.43;100.00;94041.81;5032660;28;20224;-63
2022/04/18 07:29:33;;;;;;;2.73;1.23;;;;;;;6.57;100.00;94082.75;5031449;28;20178;-64
2022/04/18 07:31:58;;;;;;;2.50;1.57;;;;;;;6.75;100.00;94068.66;5033066;28;20251;-63
2022/04/18 07:34:24;;;;;;;2.20;1.63;;;;;;;6.43;100.00;94057.78;5032662;28;20277;-64
2022/04/18 07:36:49;;;;;;;1.73;1.53;;;;;;;6.53;100.00;94045.22;5035533;28;20664;-64
2022/04/18 07:39:15;;;;;;;2.83;1.93;;;;;;;6.47;100.00;94048.25;5033085;28;20182;-63
2022/04/18 07:41:40;;;;;;;1.63;1.47;;;;;;;6.34;100.00;94028.19;5039419;23;20226;-65
2022/04/18 07:44:05;;;;;;;1.63;1.23;;;;;;;6.08;100.00;94054.66;5031325;28;20189;-64
2022/04/18 07:46:32;;;;;;;1.60;1.43;;;;;;;6.31;100.00;94043.59;5039632;23;20577;-63
2022/04/18 07:48:58;;;;;;;1.47;1.37;;;;;;;6.40;100.00;94085.78;5032397;28;20624;-64
2022/04/18 07:51:36;;;;;;;1.40;1.30;;;;;;;6.52;100.00;94101.72;5032298;28;20221;-64
2022/04/18 07:54:06;;;;;;;1.10;1.00;;;;;;;6.19;100.00;94071.50;5032576;28;20178;-64
2022/04/18 07:56:33;;;;;;;1.60;1.50;;;;;;;6.16;100.00;94062.44;5046073;23;20230;-64
2022/04/18 07:58:59;;;;;;;2.50;1.20;;;;;;;6.34;100.00;94095.56;5032391;28;20271;-63
2022/04/18 08:01:25;;;;;;;2.23;1.23;;;;;;;6.33;100.00;94079.59;5032262;28;20263;-64
2022/04/18 08:03:50;;;;;;;3.83;2.00;;;;;;;6.30;100.00;94074.78;5032240;28;20197;-64
2022/04/18 08:06:16;;;;;;;2.37;2.17;;;;;;;6.16;100.00;94064.19;5032175;28;20187;-64
2022/04/18 08:08:42;;;;;;;3.50;1.90;;;;;;;6.01;100.00;94040.09;5030847;28;20186;-65
2022/04/18 08:11:17;;;;;;;1.50;1.40;;;;;;;6.04;100.00;94065.13;5032225;28;20268;-63
2022/04/18 08:13:47;;;;;;;1.50;1.40;;;;;;;6.04;100.00;94060.84;5032481;28;20200;-63
2022/04/18 08:16:20;;;;;;;2.20;1.47;;;;;;;6.04;100.00;94035.63;5032293;28;20563;-63
2022/04/18 08:18:46;;;;;;;2.00;1.43;;;;;;;5.87;100.00;94021.00;5030645;28;20193;-65
2022/04/18 08:21:14;;;;;;;2.37;1.33;;;;;;;5.87;100.00;94031.09;5032146;28;20184;-60
2022/04/18 08:23:42;;;;;;;1.97;1.20;;;;;;;5.83;100.00;94048.19;5031009;28;20196;-64
2022/04/18 08:26:08;;;;;;;2.47;1.00;;;;;;;5.87;100.00;94048.75;5030442;28;20283;-64
2022/04/18 08:28:35;;;;;;;1.50;1.40;;;;;;;5.91;100.00;94042.53;5031103;28;20443;-63
2022/04/18 08:31:01;;;;;;;2.07;1.73;;;;;;;5.90;100.00;94030.84;5038907;23;20248;-64
2022/04/18 08:33:29;;;;;;;1.80;1.70;;;;;;;5.41;100.00;94013.56;5031942;28;20212;-63
2022/04/18 08:35:55;;;;;;;3.20;1.80;;;;;;;5.75;100.00;94037.03;5031878;28;20177;-63
2022/04/18 08:38:21;;;;;;;1.40;1.30;;;;;;;5.98;100.00;94078.97;5031987;28;20217;-62
2022/04/18 08:40:49;;;;;;;2.60;1.40;;;;;;;5.90;100.00;94044.25;5031839;28;20184;-63
2022/04/18 08:43:14;;;;;;;1.33;1.07;;;;;;;5.89;100.00;94037.63;5038876;23;20233;-64
2022/04/18 08:45:40;;;;;;;1.47;1.30;;;;;;;5.99;100.00;94067.19;5032189;28;20173;-64
2022/04/18 08:53:35;;;;;;;1.17;1.00;;;;;;;5.89;100.00;94062.84;5058901;23;20310;-63
2022/04/18 08:56:01;;;;;;;2.70;1.00;;;;;;;5.96;100.00;94065.69;5035128;28;20224;-60
2022/04/18 08:58:27;;;;;;;1.70;1.00;;;;;;;6.03;100.00;94071.88;5035559;28;20201;-62
2022/04/18 09:00:54;;;;;;;1.67;1.00;;;;;;;5.91;100.00;94061.00;5035753;28;20178;-65
2022/04/18 09:03:20;;;;;;;1.20;1.10;;;;;;;6.04;100.00;94083.56;5036007;28;20722;-63
2022/04/18 09:05:46;;;;;;;1.43;1.10;;;;;;;6.31;100.00;94096.59;5034576;28;20568;-63
2022/04/18 09:08:12;;;;;;;1.30;1.00;;;;;;;6.32;100.00;94107.50;5036224;28;20211;-63
2022/04/18 09:10:40;;;;;;;1.40;0.97;;;;;;;6.23;100.00;94100.63;5035324;28;20343;-63
2022/04/18 09:13:14;;;;;;;2.93;1.03;;;;;;;6.21;100.00;94104.97;5035693;28;20210;-62
2022/04/18 09:15:48;;;;;;;0.80;0.80;;;;;;;6.30;100.00;94119.44;5035702;28;20168;-61
2022/04/18 09:18:19;;;;;;;1.60;1.03;;;;;;;6.50;100.00;94099.31;5035311;28;20332;-65
2022/04/18 09:20:51;;;;;;;1.07;0.93;;;;;;;6.73;100.00;94121.03;5034052;28;20218;-62
2022/04/18 09:23:32;;;;;;;0.70;0.70;;;;;;;6.77;99.13;94129.97;5035890;28;20681;-64
2022/04/18 09:26:03;;;;;;;0.67;0.60;;;;;;;6.79;98.45;94142.47;5035221;28;20185;-63
2022/04/18 09:28:33;;;;;;;0.70;0.60;;;;;;;6.94;96.63;94165.75;5035536;28;20679;-62
2022/04/18 09:31:05;;;;;;;0.80;0.80;;;;;;;6.94;96.07;94165.75;5035348;28;20252;-64
2022/04/18 09:33:52;;;;;;;1.10;0.90;;;;;;;6.81;97.01;94142.38;5034111;28;20258;-64
2022/04/18 09:36:20;;;;;;;0.93;0.70;;;;;;;7.04;93.77;94189.34;5035103;28;20228;-63
2022/04/18 09:38:49;;;;;;;2.63;0.77;;;;;;;6.84;97.36;94119.38;5035335;28;20202;-62
2022/04/18 09:41:20;;;;;;;1.00;0.87;;;;;;;7.09;98.15;94117.31;5034994;28;20178;-64
2022/04/18 09:43:47;;;;;;;1.00;0.93;;;;;;;7.08;96.03;94148.56;5034934;28;20170;-61
2022/04/18 09:46:13;;;;;;;3.00;1.43;;;;;;;6.59;97.18;94120.50;5035091;28;20190;-61
2022/04/18 09:48:41;;;;;;;2.20;1.60;;;;;;;6.71;97.62;94110.25;5034924;28;20175;-63
2022/04/18 09:51:11;;;;;;;1.00;0.90;;;;;;;6.82;97.66;94114.47;5034598;28;20205;-61
2022/04/18 09:53:40;;;;;;;0.87;0.60;;;;;;;6.93;95.74;94149.00;5033744;28;20190;-63
2022/04/18 09:56:06;;;;;;;0.93;0.90;;;;;;;7.08;94.10;94152.81;5033401;28;20273;-63
2022/04/18 09:58:33;;;;;;;0.80;0.77;;;;;;;6.81;98.80;94072.44;5034649;28;20658;-63
2022/04/18 10:01:03;;;;;;;0.73;0.73;;;;;;;6.98;97.30;94114.03;5034582;28;20276;-62
2022/04/18 10:03:29;;;;;;;1.00;0.90;;;;;;;6.92;97.16;94104.41;5034283;28;20279;-63
2022/04/18 10:05:55;;;;;;;0.73;0.70;;;;;;;6.90;95.11;94129.00;5034668;28;20182;-63
2022/04/18 10:08:21;;;;;;;0.70;0.70;;;;;;;7.00;96.55;94119.78;5034420;28;20194;-64
2022/04/18 10:10:48;;;;;;;0.70;0.70;;;;;;;6.93;93.20;94164.16;5032911;28;20182;-63
2022/04/18 10:13:13;;;;;;;0.73;0.70;;;;;;;6.74;94.93;94137.00;5034141;28;20201;-63
2022/04/18 10:15:39;;;;;;;1.10;0.97;;;;;;;6.78;94.04;94141.69;5034173;28;20189;-64
2022/04/18 10:18:07;;;;;;;1.07;1.03;;;;;;;6.72;96.06;94094.19;5033027;28;20679;-62
2022/04/18 10:20:47;;;;;;;2.00;0.70;;;;;;;6.91;96.38;94097.78;5034275;28;20171;-61
2022/04/18 10:23:28;;;;;;;1.40;0.60;;;;;;;7.05;96.00;94103.31;5034250;28;20220;-61
2022/04/18 10:25:56;;;;;;;0.97;0.67;;;;;;;7.15;94.68;94131.97;5033831;28;20182;-63
2022/04/18 10:28:31;;;;;;;0.57;0.57;;;;;;;7.41;95.04;94117.28;5033881;28;20198;-61
2022/04/18 10:31:00;;;;;;;0.93;0.77;;;;;;;7.44;94.43;94132.19;5033945;28;20178;-61
2022/04/18 10:33:26;;;;;;;1.97;0.93;;;;;;;7.66;91.52;94175.03;5034494;28;20218;-63
2022/04/18 10:36:01;;;;;;;0.53;0.50;;;;;;;7.68;92.29;94160.53;5032582;28;20261;-64
2022/04/18 10:38:30;;;;;;;1.10;0.70;;;;;;;7.57;91.20;94156.34;5032902;28;20719;-62
2022/04/18 10:44:08;;;;;;;0.63;0.63;;;;;;;7.17;89.65;94192.53;5033003;28;20289;-65
2022/04/18 10:46:35;;;;;;;0.60;0.60;;;;;;;6.58;89.95;94169.41;5032283;28;20207;-63
2022/04/18 10:49:06;;;;;;;0.90;0.80;;;;;;;6.88;92.65;94116.50;5033547;28;20243;-64
2022/04/18 10:51:37;;;;;;;1.00;0.90;;;;;;;6.85;92.82;94119.25;5033480;28;20228;-62
2022/04/18 10:54:20;;;;;;;1.17;0.80;;;;;;;7.04;92.11;94141.34;5033662;28;20186;-62
2022/04/18 10:56:56;;;;;;;2.73;1.20;;;;;;;6.92;93.21;94096.84;5033661;28;20205;-63
2022/04/18 10:59:28;;;;;;;1.23;1.03;;;;;;;6.98;93.75;94088.78;5033767;28;20169;-64
2022/04/18 11:01:56;;;;;;;2.13;1.50;;;;;;;7.00;93.94;94094.50;5033901;28;20214;-64
2022/04/18 11:04:29;;;;;;;1.27;1.17;;;;;;;7.08;94.79;94079.53;5033271;28;20571;-63
2022/04/18 11:06:58;;;;;;;2.33;1.10;;;;;;;7.40;93.48;94097.97;5033622;28;20202;-63
2022/04/18 11:09:25;;;;;;;1.30;1.20;;;;;;;7.54;92.83;94117.88;5031918;28;20178;-60
2022/04/18 11:12:08;;;;;;;1.13;1.00;;;;;;;7.75;90.29;94138.06;5031425;28;20226;-67
2022/04/18 11:14:52;;;;;;;1.23;1.13;;;;;;;7.60;90.42;94145.19;5031762;28;20322;-60
2022/04/18 11:17:37;;;;;;;1.03;0.93;;;;;;;7.68;90.09;94135.25;5031836;28;20383;-64
2022/04/18 11:20:26;;;;;;;2.87;1.20;;;;;;;7.70;90.85;94130.84;5033427;28;20174;-62
2022/04/18 11:23:27;;;;;;;2.03;1.17;;;;;;;7.75;86.76;94203.84;5033640;28;20268;-61
2022/04/18 11:26:01;;;;;;;1.23;1.00;;;;;;;7.77;89.98;94124.38;5032779;28;20186;-61
2022/04/18 11:28:43;;;;;;;1.20;0.80;;;;;;;7.65;90.35;94128.69;5033044;28;20205;-63
2022/04/18 11:31:29;;;;;;;1.97;1.00;;;;;;;7.65;85.97;94198.75;5032712;28;20218;-65
2022/04/18 11:33:59;;;;;;;0.87;0.70;;;;;;;7.75;86.75;94186.97;5033041;28;20253;-62
2022/04/18 11:36:25;;;;;;;2.60;1.10;;;;;;;7.97;86.29;94201.19;5033021;28;20608;-61
2022/04/18 11:39:03;;;;;;;2.47;0.83;;;;;;;7.77;86.93;94169.13;5032935;28;20616;-63
2022/04/18 11:41:30;;;;;;;0.90;0.90;;;;;;;7.64;85.71;94180.22;5032930;28;20285;-62
2022/04/18 11:43:59;;;;;;;2.80;1.40;;;;;;;7.61;87.32;94144.28;5032705;28;20552;-61
2022/04/18 11:46:29;;;;;;;4.03;2.60;;;;;;;7.90;89.49;94097.13;5031410;28;20190;-63
2022/04/18 11:48:54;;;;;;;5.33;2.67;;;;;;;7.86;88.96;94125.38;5032650;28;20201;-62
2022/04/18 11:51:39;;;;;;;1.47;1.10;;;;;;;7.54;90.30;94100.97;5032612;28;20245;-62
2022/04/18 11:54:11;;;;;;;2.37;1.27;;;;;;;7.58;90.33;94089.69;5033014;28;20189;-61
2022/04/18 11:56:37;;;;;;;1.27;1.17;;;;;;;7.54;90.31;94106.03;5032712;28;20215;-62
2022/04/18 11:59:03;;;;;;;1.53;1.17;;;;;;;7.52;89.93;94112.13;5030985;28;20595;-64
2022/04/18 12:06:57;;;;;;;1.17;1.07;;;;;;;7.87;90.42;94077.16;5032671;28;20703;-64